sensor_id;sensor_type;location;lat;lon;timestamp;temperature;humidity
5938;DHT22;2994;51.220;4.412;2022-09-09T00:00:23;18.47;75.39
5938;DHT22;2994;51.220;4.412;2022-09-09T00:03:02;18.46;75.39
5938;DHT22;2994;51.220;4.412;2022-09-09T00:08:15;18.40;75.47
5938;DHT22;2994;51.220;4.412;2022-09-09T00:10:43;18.43;75.07
5938;DHT22;2994;51.220;4.412;2022-09-09T00:19:04;18.42;75.15
5938;DHT22;2994;51.220;4.412;2022-09-09T00:21:36;18.39;75.23
5938;DHT22;2994;51.220;4.412;2022-09-09T00:24:23;18.36;75.34
5938;DHT22;2994;51.220;4.412;2022-09-09T00:26:55;18.35;74.98
5938;DHT22;2994;51.220;4.412;2022-09-09T00:29:31;18.36;75.21
5938;DHT22;2994;51.220;4.412;2022-09-09T00:32:07;18.36;75.36
5938;DHT22;2994;51.220;4.412;2022-09-09T00:34:35;18.39;75.34
5938;DHT22;2994;51.220;4.412;2022-09-09T00:37:02;18.35;75.46
5938;DHT22;2994;51.220;4.412;2022-09-09T00:39:40;18.39;74.80
5938;DHT22;2994;51.220;4.412;2022-09-09T00:42:26;18.37;75.02
5938;DHT22;2994;51.220;4.412;2022-09-09T00:44:58;18.35;75.17
5938;DHT22;2994;51.220;4.412;2022-09-09T00:47:43;18.39;75.06
5938;DHT22;2994;51.220;4.412;2022-09-09T00:55:48;18.35;74.88
5938;DHT22;2994;51.220;4.412;2022-09-09T00:58:14;18.43;74.76
5938;DHT22;2994;51.220;4.412;2022-09-09T01:01:05;18.38;74.51
5938;DHT22;2994;51.220;4.412;2022-09-09T01:03:44;18.39;74.56
5938;DHT22;2994;51.220;4.412;2022-09-09T01:09:04;18.37;74.64
5938;DHT22;2994;51.220;4.412;2022-09-09T01:11:50;18.39;74.45
5938;DHT22;2994;51.220;4.412;2022-09-09T01:14:41;18.40;74.32
5938;DHT22;2994;51.220;4.412;2022-09-09T01:22:15;18.39;74.17
5938;DHT22;2994;51.220;4.412;2022-09-09T01:25:13;18.41;74.15
5938;DHT22;2994;51.220;4.412;2022-09-09T01:27:42;18.44;73.92
5938;DHT22;2994;51.220;4.412;2022-09-09T01:30:11;18.41;74.49
5938;DHT22;2994;51.220;4.412;2022-09-09T01:32:46;18.38;74.60
5938;DHT22;2994;51.220;4.412;2022-09-09T01:37:49;18.44;73.98
5938;DHT22;2994;51.220;4.412;2022-09-09T01:40:15;18.44;74.07
5938;DHT22;2994;51.220;4.412;2022-09-09T01:42:40;18.40;74.06
5938;DHT22;2994;51.220;4.412;2022-09-09T01:45:06;18.44;73.82
5938;DHT22;2994;51.220;4.412;2022-09-09T01:47:32;18.44;73.70
5938;DHT22;2994;51.220;4.412;2022-09-09T01:49:58;18.37;74.05
5938;DHT22;2994;51.220;4.412;2022-09-09T01:52:24;18.42;73.61
5938;DHT22;2994;51.220;4.412;2022-09-09T01:54:50;18.38;73.76
5938;DHT22;2994;51.220;4.412;2022-09-09T01:57:21;18.33;74.35
5938;DHT22;2994;51.220;4.412;2022-09-09T02:00:05;18.34;74.54
5938;DHT22;2994;51.220;4.412;2022-09-09T02:05:43;18.32;74.15
5938;DHT22;2994;51.220;4.412;2022-09-09T02:08:17;18.36;74.11
5938;DHT22;2994;51.220;4.412;2022-09-09T02:13:14;18.34;74.01
5938;DHT22;2994;51.220;4.412;2022-09-09T02:18:13;18.30;74.52
5938;DHT22;2994;51.220;4.412;2022-09-09T02:20:41;18.29;74.47
5938;DHT22;2994;51.220;4.412;2022-09-09T02:23:09;18.27;74.41
5938;DHT22;2994;51.220;4.412;2022-09-09T02:25:36;18.29;74.60
5938;DHT22;2994;51.220;4.412;2022-09-09T02:28:04;18.26;74.60
5938;DHT22;2994;51.220;4.412;2022-09-09T02:30:32;18.27;74.53
5938;DHT22;2994;51.220;4.412;2022-09-09T02:33:01;18.24;74.90
5938;DHT22;2994;51.220;4.412;2022-09-09T02:35:30;18.25;74.97
5938;DHT22;2994;51.220;4.412;2022-09-09T02:37:59;18.32;74.59
5938;DHT22;2994;51.220;4.412;2022-09-09T02:40:26;18.27;74.76
5938;DHT22;2994;51.220;4.412;2022-09-09T02:42:54;18.25;74.84
5938;DHT22;2994;51.220;4.412;2022-09-09T02:45:24;18.25;74.94
5938;DHT22;2994;51.220;4.412;2022-09-09T02:47:59;18.27;74.47
5938;DHT22;2994;51.220;4.412;2022-09-09T02:50:39;18.25;74.83
5938;DHT22;2994;51.220;4.412;2022-09-09T02:53:11;18.30;74.84
5938;DHT22;2994;51.220;4.412;2022-09-09T02:55:56;18.25;74.81
5938;DHT22;2994;51.220;4.412;2022-09-09T02:58:23;18.27;74.87
5938;DHT22;2994;51.220;4.412;2022-09-09T03:00:50;18.26;74.88
5938;DHT22;2994;51.220;4.412;2022-09-09T03:03:17;18.28;74.92
5938;DHT22;2994;51.220;4.412;2022-09-09T03:05:43;18.24;74.65
5938;DHT22;2994;51.220;4.412;2022-09-09T03:08:10;18.28;74.94
5938;DHT22;2994;51.220;4.412;2022-09-09T03:10:35;18.25;75.22
5938;DHT22;2994;51.220;4.412;2022-09-09T03:13:02;18.26;74.93
5938;DHT22;2994;51.220;4.412;2022-09-09T03:15:29;18.25;75.05
5938;DHT22;2994;51.220;4.412;2022-09-09T03:17:57;18.32;74.86
5938;DHT22;2994;51.220;4.412;2022-09-09T03:20:24;18.26;75.06
5938;DHT22;2994;51.220;4.412;2022-09-09T03:22:51;18.29;75.09
5938;DHT22;2994;51.220;4.412;2022-09-09T03:25:17;18.29;74.88
5938;DHT22;2994;51.220;4.412;2022-09-09T03:27:43;18.26;75.26
5938;DHT22;2994;51.220;4.412;2022-09-09T03:30:09;18.21;75.66
5938;DHT22;2994;51.220;4.412;2022-09-09T03:32:34;18.25;75.37
5938;DHT22;2994;51.220;4.412;2022-09-09T03:34:59;18.17;75.89
5938;DHT22;2994;51.220;4.412;2022-09-09T03:37:25;18.27;75.33
5938;DHT22;2994;51.220;4.412;2022-09-09T03:39:51;18.29;75.34
5938;DHT22;2994;51.220;4.412;2022-09-09T03:42:16;18.33;74.88
5938;DHT22;2994;51.220;4.412;2022-09-09T03:44:45;18.30;75.21
5938;DHT22;2994;51.220;4.412;2022-09-09T03:47:19;18.32;75.28
5938;DHT22;2994;51.220;4.412;2022-09-09T03:49:45;18.30;75.34
5938;DHT22;2994;51.220;4.412;2022-09-09T03:52:10;18.30;74.98
5938;DHT22;2994;51.220;4.412;2022-09-09T03:54:36;18.33;75.03
5938;DHT22;2994;51.220;4.412;2022-09-09T03:57:02;18.35;74.94
5938;DHT22;2994;51.220;4.412;2022-09-09T03:59:27;18.39;74.89
5938;DHT22;2994;51.220;4.412;2022-09-09T04:01:53;18.40;74.67
5938;DHT22;2994;51.220;4.412;2022-09-09T04:04:19;18.40;74.58
5938;DHT22;2994;51.220;4.412;2022-09-09T04:06:45;18.41;74.59
5938;DHT22;2994;51.220;4.412;2022-09-09T04:09:11;18.39;74.59
5938;DHT22;2994;51.220;4.412;2022-09-09T04:11:36;18.39;74.85
5938;DHT22;2994;51.220;4.412;2022-09-09T04:14:02;18.40;74.87
5938;DHT22;2994;51.220;4.412;2022-09-09T04:16:31;18.47;74.64
5938;DHT22;2994;51.220;4.412;2022-09-09T04:18:57;18.44;74.66
5938;DHT22;2994;51.220;4.412;2022-09-09T04:21:23;18.39;74.83
5938;DHT22;2994;51.220;4.412;2022-09-09T04:23:48;18.43;74.67
5938;DHT22;2994;51.220;4.412;2022-09-09T04:26:14;18.38;75.01
5938;DHT22;2994;51.220;4.412;2022-09-09T04:28:39;18.40;74.86
5938;DHT22;2994;51.220;4.412;2022-09-09T04:31:07;18.41;74.82
5938;DHT22;2994;51.220;4.412;2022-09-09T04:33:33;18.39;74.71
5938;DHT22;2994;51.220;4.412;2022-09-09T04:35:58;18.41;74.57
5938;DHT22;2994;51.220;4.412;2022-09-09T04:38:23;18.43;74.54
5938;DHT22;2994;51.220;4.412;2022-09-09T04:40:50;18.36;74.96
5938;DHT22;2994;51.220;4.412;2022-09-09T04:43:17;18.40;74.68
5938;DHT22;2994;51.220;4.412;2022-09-09T04:45:47;18.46;74.50
5938;DHT22;2994;51.220;4.412;2022-09-09T04:48:13;18.39;74.80
5938;DHT22;2994;51.220;4.412;2022-09-09T04:50:39;18.42;74.68
5938;DHT22;2994;51.220;4.412;2022-09-09T04:53:06;18.46;74.47
5938;DHT22;2994;51.220;4.412;2022-09-09T04:55:32;18.48;74.47
5938;DHT22;2994;51.220;4.412;2022-09-09T04:58:05;18.48;74.41
5938;DHT22;2994;51.220;4.412;2022-09-09T05:00:31;18.46;74.44
5938;DHT22;2994;51.220;4.412;2022-09-09T05:02:56;18.49;74.18
5938;DHT22;2994;51.220;4.412;2022-09-09T05:05:22;18.48;74.15
5938;DHT22;2994;51.220;4.412;2022-09-09T05:07:47;18.41;74.67
5938;DHT22;2994;51.220;4.412;2022-09-09T05:10:13;18.46;74.35
5938;DHT22;2994;51.220;4.412;2022-09-09T05:12:40;18.51;74.20
5938;DHT22;2994;51.220;4.412;2022-09-09T05:15:05;18.49;74.40
5938;DHT22;2994;51.220;4.412;2022-09-09T05:17:32;18.52;74.27
5938;DHT22;2994;51.220;4.412;2022-09-09T05:19:57;18.56;73.91
5938;DHT22;2994;51.220;4.412;2022-09-09T05:22:23;18.50;74.05
5938;DHT22;2994;51.220;4.412;2022-09-09T05:24:49;18.51;74.14
5938;DHT22;2994;51.220;4.412;2022-09-09T05:27:18;18.56;73.70
5938;DHT22;2994;51.220;4.412;2022-09-09T05:29:45;18.58;73.82
5938;DHT22;2994;51.220;4.412;2022-09-09T05:32:11;18.61;73.77
5938;DHT22;2994;51.220;4.412;2022-09-09T05:34:36;18.65;73.33
5938;DHT22;2994;51.220;4.412;2022-09-09T05:37:03;18.65;73.24
5938;DHT22;2994;51.220;4.412;2022-09-09T05:39:29;18.59;73.80
5938;DHT22;2994;51.220;4.412;2022-09-09T05:41:55;18.68;73.60
5938;DHT22;2994;51.220;4.412;2022-09-09T05:44:20;18.74;73.13
5938;DHT22;2994;51.220;4.412;2022-09-09T05:46:48;18.57;74.01
5938;DHT22;2994;51.220;4.412;2022-09-09T05:49:14;18.64;73.80
5938;DHT22;2994;51.220;4.412;2022-09-09T05:51:41;18.71;73.09
5938;DHT22;2994;51.220;4.412;2022-09-09T05:54:08;18.68;73.19
5938;DHT22;2994;51.220;4.412;2022-09-09T05:56:33;18.66;73.54
5938;DHT22;2994;51.220;4.412;2022-09-09T05:58:59;18.73;73.44
5938;DHT22;2994;51.220;4.412;2022-09-09T06:01:35;18.70;73.59
5938;DHT22;2994;51.220;4.412;2022-09-09T06:04:01;18.72;73.25
5938;DHT22;2994;51.220;4.412;2022-09-09T06:06:31;18.79;73.05
5938;DHT22;2994;51.220;4.412;2022-09-09T06:08:57;18.86;72.58
5938;DHT22;2994;51.220;4.412;2022-09-09T06:11:29;18.88;72.70
5938;DHT22;2994;51.220;4.412;2022-09-09T06:13:58;18.92;72.44
5938;DHT22;2994;51.220;4.412;2022-09-09T06:16:26;18.95;72.25
5938;DHT22;2994;51.220;4.412;2022-09-09T06:18:53;18.96;72.40
5938;DHT22;2994;51.220;4.412;2022-09-09T06:21:23;18.97;72.70
5938;DHT22;2994;51.220;4.412;2022-09-09T06:23:49;18.97;72.61
5938;DHT22;2994;51.220;4.412;2022-09-09T06:26:21;19.03;72.05
5938;DHT22;2994;51.220;4.412;2022-09-09T06:28:50;19.05;72.15
5938;DHT22;2994;51.220;4.412;2022-09-09T06:31:17;19.09;71.74
5938;DHT22;2994;51.220;4.412;2022-09-09T06:33:47;19.02;72.03
5938;DHT22;2994;51.220;4.412;2022-09-09T06:36:20;18.93;72.38
5938;DHT22;2994;51.220;4.412;2022-09-09T06:38:46;19.00;71.98
5938;DHT22;2994;51.220;4.412;2022-09-09T06:41:14;19.02;71.86
5938;DHT22;2994;51.220;4.412;2022-09-09T06:43:40;19.08;71.55
5938;DHT22;2994;51.220;4.412;2022-09-09T06:46:11;19.12;71.32
5938;DHT22;2994;51.220;4.412;2022-09-09T06:48:38;19.16;70.87
5938;DHT22;2994;51.220;4.412;2022-09-09T06:53:35;19.07;71.35
5938;DHT22;2994;51.220;4.412;2022-09-09T06:56:02;19.10;71.45
5938;DHT22;2994;51.220;4.412;2022-09-09T06:58:28;19.16;71.03
5938;DHT22;2994;51.220;4.412;2022-09-09T07:01:02;19.20;70.94
5938;DHT22;2994;51.220;4.412;2022-09-09T07:03:28;19.22;70.64
5938;DHT22;2994;51.220;4.412;2022-09-09T07:05:54;19.20;71.10
5938;DHT22;2994;51.220;4.412;2022-09-09T07:08:21;19.27;70.41
5938;DHT22;2994;51.220;4.412;2022-09-09T07:10:46;19.37;70.07
5938;DHT22;2994;51.220;4.412;2022-09-09T07:13:12;19.40;70.00
5938;DHT22;2994;51.220;4.412;2022-09-09T07:15:41;19.56;69.49
5938;DHT22;2994;51.220;4.412;2022-09-09T07:18:07;19.56;69.35
5938;DHT22;2994;51.220;4.412;2022-09-09T07:20:33;19.59;69.57
5938;DHT22;2994;51.220;4.412;2022-09-09T07:22:58;19.69;69.10
5938;DHT22;2994;51.220;4.412;2022-09-09T07:25:24;19.65;69.06
5938;DHT22;2994;51.220;4.412;2022-09-09T07:27:53;19.66;69.02
5938;DHT22;2994;51.220;4.412;2022-09-09T07:30:20;19.76;68.66
5938;DHT22;2994;51.220;4.412;2022-09-09T07:32:45;19.77;68.87
5938;DHT22;2994;51.220;4.412;2022-09-09T07:35:10;19.74;68.58
5938;DHT22;2994;51.220;4.412;2022-09-09T07:37:37;19.76;68.29
5938;DHT22;2994;51.220;4.412;2022-09-09T07:40:03;19.74;67.84
5938;DHT22;2994;51.220;4.412;2022-09-09T07:42:30;19.58;68.75
5938;DHT22;2994;51.220;4.412;2022-09-09T07:44:55;19.60;68.61
5938;DHT22;2994;51.220;4.412;2022-09-09T07:47:21;19.72;68.33
5938;DHT22;2994;51.220;4.412;2022-09-09T07:49:47;19.71;68.36
5938;DHT22;2994;51.220;4.412;2022-09-09T07:52:15;19.77;68.26
5938;DHT22;2994;51.220;4.412;2022-09-09T07:54:40;19.82;68.15
5938;DHT22;2994;51.220;4.412;2022-09-09T07:57:06;19.84;68.10
5938;DHT22;2994;51.220;4.412;2022-09-09T07:59:32;19.85;68.10
5938;DHT22;2994;51.220;4.412;2022-09-09T08:01:58;19.79;68.07
5938;DHT22;2994;51.220;4.412;2022-09-09T08:04:25;19.83;68.20
5938;DHT22;2994;51.220;4.412;2022-09-09T08:06:56;19.92;68.19
5938;DHT22;2994;51.220;4.412;2022-09-09T08:09:23;19.92;67.79
5938;DHT22;2994;51.220;4.412;2022-09-09T08:11:53;19.95;67.46
5938;DHT22;2994;51.220;4.412;2022-09-09T08:14:19;19.96;67.34
5938;DHT22;2994;51.220;4.412;2022-09-09T08:16:47;19.97;67.02
5938;DHT22;2994;51.220;4.412;2022-09-09T08:19:13;19.87;67.54
5938;DHT22;2994;51.220;4.412;2022-09-09T08:21:41;19.95;67.49
5938;DHT22;2994;51.220;4.412;2022-09-09T08:24:08;20.00;67.20
5938;DHT22;2994;51.220;4.412;2022-09-09T08:26:38;19.95;67.65
5938;DHT22;2994;51.220;4.412;2022-09-09T08:29:05;19.83;67.75
5938;DHT22;2994;51.220;4.412;2022-09-09T08:31:36;19.77;67.52
5938;DHT22;2994;51.220;4.412;2022-09-09T08:34:03;19.89;67.46
5938;DHT22;2994;51.220;4.412;2022-09-09T08:36:33;19.96;67.40
5938;DHT22;2994;51.220;4.412;2022-09-09T08:38:59;20.10;66.80
5938;DHT22;2994;51.220;4.412;2022-09-09T08:41:48;20.07;66.58
5938;DHT22;2994;51.220;4.412;2022-09-09T08:44:31;20.16;66.28
5938;DHT22;2994;51.220;4.412;2022-09-09T08:52:47;20.13;66.54
5938;DHT22;2994;51.220;4.412;2022-09-09T08:57:54;20.22;66.28
5938;DHT22;2994;51.220;4.412;2022-09-09T09:00:20;20.06;67.01
5938;DHT22;2994;51.220;4.412;2022-09-09T09:11:26;20.01;68.49
5938;DHT22;2994;51.220;4.412;2022-09-09T09:14:01;20.12;68.42
5938;DHT22;2994;51.220;4.412;2022-09-09T09:19:03;20.16;68.78
5938;DHT22;2994;51.220;4.412;2022-09-09T09:24:09;20.04;69.64
5938;DHT22;2994;51.220;4.412;2022-09-09T09:26:37;20.02;69.82
5938;DHT22;2994;51.220;4.412;2022-09-09T09:29:17;20.06;69.80
5938;DHT22;2994;51.220;4.412;2022-09-09T09:31:54;20.10;69.76
5938;DHT22;2994;51.220;4.412;2022-09-09T09:34:20;20.06;69.58
5938;DHT22;2994;51.220;4.412;2022-09-09T09:39:24;20.05;69.94
5938;DHT22;2994;51.220;4.412;2022-09-09T09:41:50;19.97;69.96
5938;DHT22;2994;51.220;4.412;2022-09-09T09:44:42;19.86;69.71
5938;DHT22;2994;51.220;4.412;2022-09-09T09:49:39;20.02;69.26
5938;DHT22;2994;51.220;4.412;2022-09-09T09:52:06;20.10;69.04
5938;DHT22;2994;51.220;4.412;2022-09-09T09:54:37;19.98;69.02
5938;DHT22;2994;51.220;4.412;2022-09-09T09:57:12;19.92;69.41
5938;DHT22;2994;51.220;4.412;2022-09-09T09:59:38;19.86;69.81
5938;DHT22;2994;51.220;4.412;2022-09-09T10:02:16;19.86;69.90
5938;DHT22;2994;51.220;4.412;2022-09-09T10:04:42;20.00;69.11
5938;DHT22;2994;51.220;4.412;2022-09-09T10:07:12;19.85;69.79
5938;DHT22;2994;51.220;4.412;2022-09-09T10:09:38;20.00;69.50
5938;DHT22;2994;51.220;4.412;2022-09-09T10:14:48;20.11;69.19
5938;DHT22;2994;51.220;4.412;2022-09-09T10:17:33;20.10;68.80
5938;DHT22;2994;51.220;4.412;2022-09-09T10:20:18;20.07;69.19
5938;DHT22;2994;51.220;4.412;2022-09-09T10:22:51;20.27;68.58
5938;DHT22;2994;51.220;4.412;2022-09-09T10:25:20;20.28;67.98
5938;DHT22;2994;51.220;4.412;2022-09-09T10:33:40;20.11;68.76
5938;DHT22;2994;51.220;4.412;2022-09-09T10:36:30;20.17;68.56
5938;DHT22;2994;51.220;4.412;2022-09-09T10:39:05;20.25;68.10
5938;DHT22;2994;51.220;4.412;2022-09-09T10:50:25;20.26;67.99
5938;DHT22;2994;51.220;4.412;2022-09-09T10:53:08;20.30;68.04
5938;DHT22;2994;51.220;4.412;2022-09-09T10:55:50;20.17;68.42
5938;DHT22;2994;51.220;4.412;2022-09-09T10:58:33;20.22;68.04
5938;DHT22;2994;51.220;4.412;2022-09-09T11:01:10;20.32;67.88
5938;DHT22;2994;51.220;4.412;2022-09-09T11:03:38;20.33;67.81
5938;DHT22;2994;51.220;4.412;2022-09-09T11:06:09;20.34;68.23
5938;DHT22;2994;51.220;4.412;2022-09-09T11:08:38;20.36;68.15
5938;DHT22;2994;51.220;4.412;2022-09-09T11:11:29;20.39;68.02
5938;DHT22;2994;51.220;4.412;2022-09-09T11:14:09;20.51;67.67
5938;DHT22;2994;51.220;4.412;2022-09-09T11:16:42;20.50;67.61
5938;DHT22;2994;51.220;4.412;2022-09-09T11:19:35;20.65;67.43
5938;DHT22;2994;51.220;4.412;2022-09-09T11:22:19;20.60;67.49
5938;DHT22;2994;51.220;4.412;2022-09-09T11:24:59;20.68;66.60
5938;DHT22;2994;51.220;4.412;2022-09-09T11:28:22;20.81;66.67
5938;DHT22;2994;51.220;4.412;2022-09-09T11:33:38;20.84;66.33
5938;DHT22;2994;51.220;4.412;2022-09-09T11:38:52;20.80;66.28
5938;DHT22;2994;51.220;4.412;2022-09-09T11:41:20;20.94;65.07
5938;DHT22;2994;51.220;4.412;2022-09-09T11:43:51;21.06;64.97
5938;DHT22;2994;51.220;4.412;2022-09-09T11:46:20;21.07;65.21
5938;DHT22;2994;51.220;4.412;2022-09-09T11:49:02;21.20;64.01
5938;DHT22;2994;51.220;4.412;2022-09-09T11:51:30;21.24;64.31
5938;DHT22;2994;51.220;4.412;2022-09-09T11:54:00;21.24;64.11
5938;DHT22;2994;51.220;4.412;2022-09-09T11:56:43;21.36;63.79
5938;DHT22;2994;51.220;4.412;2022-09-09T11:59:27;21.45;63.09
5938;DHT22;2994;51.220;4.412;2022-09-09T12:04:32;21.53;62.38
5938;DHT22;2994;51.220;4.412;2022-09-09T12:10:01;21.63;62.07
5938;DHT22;2994;51.220;4.412;2022-09-09T12:12:34;21.77;61.55
5938;DHT22;2994;51.220;4.412;2022-09-09T12:17:46;21.74;61.70
5938;DHT22;2994;51.220;4.412;2022-09-09T12:20:15;21.73;61.31
5938;DHT22;2994;51.220;4.412;2022-09-09T12:25:23;21.76;60.94
5938;DHT22;2994;51.220;4.412;2022-09-09T12:28:18;22.01;60.29
5938;DHT22;2994;51.220;4.412;2022-09-09T12:30:57;22.03;60.60
5938;DHT22;2994;51.220;4.412;2022-09-09T12:33:23;22.17;59.65
5938;DHT22;2994;51.220;4.412;2022-09-09T12:35:55;22.09;59.57
5938;DHT22;2994;51.220;4.412;2022-09-09T12:38:35;22.10;59.61
5938;DHT22;2994;51.220;4.412;2022-09-09T12:41:01;22.09;59.47
5938;DHT22;2994;51.220;4.412;2022-09-09T12:43:27;21.90;60.39
5938;DHT22;2994;51.220;4.412;2022-09-09T12:45:59;21.87;60.07
5938;DHT22;2994;51.220;4.412;2022-09-09T12:48:51;21.84;60.59
5938;DHT22;2994;51.220;4.412;2022-09-09T12:51:31;21.90;60.51
5938;DHT22;2994;51.220;4.412;2022-09-09T12:53:59;21.92;60.89
5938;DHT22;2994;51.220;4.412;2022-09-09T12:56:27;21.93;60.86
5938;DHT22;2994;51.220;4.412;2022-09-09T12:58:55;21.81;61.28
5938;DHT22;2994;51.220;4.412;2022-09-09T13:01:34;22.11;60.22
5938;DHT22;2994;51.220;4.412;2022-09-09T13:04:00;22.31;59.64
5938;DHT22;2994;51.220;4.412;2022-09-09T13:06:30;22.37;59.33
5938;DHT22;2994;51.220;4.412;2022-09-09T13:08:58;22.32;59.41
5938;DHT22;2994;51.220;4.412;2022-09-09T13:11:49;22.36;58.93
5938;DHT22;2994;51.220;4.412;2022-09-09T13:14:22;22.31;59.17
5938;DHT22;2994;51.220;4.412;2022-09-09T13:16:59;22.44;58.84
5938;DHT22;2994;51.220;4.412;2022-09-09T13:19:25;22.54;58.50
5938;DHT22;2994;51.220;4.412;2022-09-09T13:21:54;22.38;58.99
5938;DHT22;2994;51.220;4.412;2022-09-09T13:24:33;22.34;59.66
5938;DHT22;2994;51.220;4.412;2022-09-09T13:27:05;22.31;59.67
5938;DHT22;2994;51.220;4.412;2022-09-09T13:29:51;22.90;57.85
5938;DHT22;2994;51.220;4.412;2022-09-09T13:32:21;23.01;57.12
5938;DHT22;2994;51.220;4.412;2022-09-09T13:34:58;23.12;56.86
5938;DHT22;2994;51.220;4.412;2022-09-09T13:39:53;23.40;56.38
5938;DHT22;2994;51.220;4.412;2022-09-09T13:42:28;23.44;56.64
5938;DHT22;2994;51.220;4.412;2022-09-09T13:44:55;23.43;55.83
5938;DHT22;2994;51.220;4.412;2022-09-09T13:47:29;23.12;56.29
5938;DHT22;2994;51.220;4.412;2022-09-09T13:49:56;23.30;55.99
5938;DHT22;2994;51.220;4.412;2022-09-09T13:52:21;23.39;56.26
5938;DHT22;2994;51.220;4.412;2022-09-09T13:54:51;23.28;56.84
5938;DHT22;2994;51.220;4.412;2022-09-09T13:57:24;23.39;56.39
5938;DHT22;2994;51.220;4.412;2022-09-09T13:59:51;23.31;56.51
5938;DHT22;2994;51.220;4.412;2022-09-09T14:02:17;23.27;56.78
5938;DHT22;2994;51.220;4.412;2022-09-09T14:04:43;23.17;56.61
5938;DHT22;2994;51.220;4.412;2022-09-09T14:07:12;23.11;57.07
5938;DHT22;2994;51.220;4.412;2022-09-09T14:09:38;23.10;56.91
5938;DHT22;2994;51.220;4.412;2022-09-09T14:12:04;23.24;55.76
5938;DHT22;2994;51.220;4.412;2022-09-09T14:14:30;23.17;55.83
5938;DHT22;2994;51.220;4.412;2022-09-09T14:16:55;23.25;56.00
5938;DHT22;2994;51.220;4.412;2022-09-09T14:19:21;23.41;55.66
5938;DHT22;2994;51.220;4.412;2022-09-09T14:21:46;23.44;55.50
5938;DHT22;2994;51.220;4.412;2022-09-09T14:24:12;23.38;55.61
5938;DHT22;2994;51.220;4.412;2022-09-09T14:26:37;23.61;54.45
5938;DHT22;2994;51.220;4.412;2022-09-09T14:29:03;23.45;54.43
5938;DHT22;2994;51.220;4.412;2022-09-09T14:31:28;23.24;55.30
5938;DHT22;2994;51.220;4.412;2022-09-09T14:33:54;23.21;55.38
5938;DHT22;2994;51.220;4.412;2022-09-09T14:36:20;23.27;55.52
5938;DHT22;2994;51.220;4.412;2022-09-09T14:38:45;23.16;56.10
5938;DHT22;2994;51.220;4.412;2022-09-09T14:41:16;23.15;56.43
5938;DHT22;2994;51.220;4.412;2022-09-09T14:43:43;23.17;56.09
5938;DHT22;2994;51.220;4.412;2022-09-09T14:46:10;23.02;56.67
5938;DHT22;2994;51.220;4.412;2022-09-09T14:48:36;23.00;56.70
5938;DHT22;2994;51.220;4.412;2022-09-09T14:51:16;22.86;57.06
5938;DHT22;2994;51.220;4.412;2022-09-09T14:53:43;22.82;57.92
5938;DHT22;2994;51.220;4.412;2022-09-09T14:56:13;22.70;58.96
5938;DHT22;2994;51.220;4.412;2022-09-09T14:58:38;22.62;58.83
5938;DHT22;2994;51.220;4.412;2022-09-09T15:01:05;22.65;59.03
5938;DHT22;2994;51.220;4.412;2022-09-09T15:03:31;22.44;59.85
5938;DHT22;2994;51.220;4.412;2022-09-09T15:05:57;22.24;66.50
5938;DHT22;2994;51.220;4.412;2022-09-09T15:08:24;22.10;67.46
5938;DHT22;2994;51.220;4.412;2022-09-09T15:10:49;21.90;67.45
5938;DHT22;2994;51.220;4.412;2022-09-09T15:13:15;21.62;69.20
5938;DHT22;2994;51.220;4.412;2022-09-09T15:15:43;21.55;69.13
5938;DHT22;2994;51.220;4.412;2022-09-09T15:18:09;21.43;69.20
5938;DHT22;2994;51.220;4.412;2022-09-09T15:20:34;21.43;70.09
5938;DHT22;2994;51.220;4.412;2022-09-09T15:23:02;21.40;69.41
5938;DHT22;2994;51.220;4.412;2022-09-09T15:25:28;21.31;70.14
5938;DHT22;2994;51.220;4.412;2022-09-09T15:27:53;21.33;71.23
5938;DHT22;2994;51.220;4.412;2022-09-09T15:30:19;21.35;70.69
5938;DHT22;2994;51.220;4.412;2022-09-09T15:32:44;21.33;72.10
5938;DHT22;2994;51.220;4.412;2022-09-09T15:35:09;21.30;70.27
5938;DHT22;2994;51.220;4.412;2022-09-09T15:37:35;21.24;71.33
5938;DHT22;2994;51.220;4.412;2022-09-09T15:40:00;21.19;70.13
5938;DHT22;2994;51.220;4.412;2022-09-09T15:42:26;21.28;70.84
5938;DHT22;2994;51.220;4.412;2022-09-09T15:44:52;21.21;71.24
5938;DHT22;2994;51.220;4.412;2022-09-09T15:47:17;21.04;70.80
5938;DHT22;2994;51.220;4.412;2022-09-09T15:49:43;20.83;67.40
5938;DHT22;2994;51.220;4.412;2022-09-09T15:52:10;20.85;70.05
5938;DHT22;2994;51.220;4.412;2022-09-09T15:54:36;20.90;67.84
5938;DHT22;2994;51.220;4.412;2022-09-09T15:57:06;20.86;68.87
5938;DHT22;2994;51.220;4.412;2022-09-09T15:59:32;20.90;68.56
5938;DHT22;2994;51.220;4.412;2022-09-09T16:01:59;20.94;68.68
5938;DHT22;2994;51.220;4.412;2022-09-09T16:04:25;20.86;70.37
5938;DHT22;2994;51.220;4.412;2022-09-09T16:06:55;20.81;70.19
5938;DHT22;2994;51.220;4.412;2022-09-09T16:09:21;20.74;70.20
5938;DHT22;2994;51.220;4.412;2022-09-09T16:11:47;20.75;70.84
5938;DHT22;2994;51.220;4.412;2022-09-09T16:14:13;20.85;70.45
5938;DHT22;2994;51.220;4.412;2022-09-09T16:16:41;20.77;71.10
5938;DHT22;2994;51.220;4.412;2022-09-09T16:19:08;20.84;70.76
5938;DHT22;2994;51.220;4.412;2022-09-09T16:21:55;20.83;70.51
5938;DHT22;2994;51.220;4.412;2022-09-09T16:24:20;20.84;70.81
5938;DHT22;2994;51.220;4.412;2022-09-09T16:26:48;20.81;69.57
5938;DHT22;2994;51.220;4.412;2022-09-09T16:29:14;20.79;68.93
5938;DHT22;2994;51.220;4.412;2022-09-09T16:31:41;20.75;69.49
5938;DHT22;2994;51.220;4.412;2022-09-09T16:34:07;20.80;69.29
5938;DHT22;2994;51.220;4.412;2022-09-09T16:36:35;20.76;70.10
5938;DHT22;2994;51.220;4.412;2022-09-09T16:39:04;20.73;70.35
5938;DHT22;2994;51.220;4.412;2022-09-09T16:41:30;20.66;70.71
5938;DHT22;2994;51.220;4.412;2022-09-09T16:43:58;20.61;71.85
5938;DHT22;2994;51.220;4.412;2022-09-09T16:46:24;20.59;71.84
5938;DHT22;2994;51.220;4.412;2022-09-09T16:48:50;20.51;72.59
5938;DHT22;2994;51.220;4.412;2022-09-09T16:51:21;20.59;71.76
5938;DHT22;2994;51.220;4.412;2022-09-09T16:53:49;20.54;72.97
5938;DHT22;2994;51.220;4.412;2022-09-09T16:56:17;20.55;72.65
5938;DHT22;2994;51.220;4.412;2022-09-09T16:58:48;20.53;72.55
5938;DHT22;2994;51.220;4.412;2022-09-09T17:01:14;20.58;72.19
5938;DHT22;2994;51.220;4.412;2022-09-09T17:03:40;20.57;72.97
5938;DHT22;2994;51.220;4.412;2022-09-09T17:06:15;20.57;72.68
5938;DHT22;2994;51.220;4.412;2022-09-09T17:08:41;20.48;72.43
5938;DHT22;2994;51.220;4.412;2022-09-09T17:11:14;20.32;73.30
5938;DHT22;2994;51.220;4.412;2022-09-09T17:13:44;20.46;72.37
5938;DHT22;2994;51.220;4.412;2022-09-09T17:16:10;20.54;72.05
5938;DHT22;2994;51.220;4.412;2022-09-09T17:18:36;20.56;72.79
5938;DHT22;2994;51.220;4.412;2022-09-09T17:21:04;20.51;73.18
5938;DHT22;2994;51.220;4.412;2022-09-09T17:23:29;20.56;72.88
5938;DHT22;2994;51.220;4.412;2022-09-09T17:25:56;20.57;72.51
5938;DHT22;2994;51.220;4.412;2022-09-09T17:28:22;20.59;72.30
5938;DHT22;2994;51.220;4.412;2022-09-09T17:30:52;20.58;71.59
5938;DHT22;2994;51.220;4.412;2022-09-09T17:33:17;20.60;71.63
5938;DHT22;2994;51.220;4.412;2022-09-09T17:35:46;20.59;72.14
5938;DHT22;2994;51.220;4.412;2022-09-09T17:38:16;20.50;71.38
5938;DHT22;2994;51.220;4.412;2022-09-09T17:40:41;20.57;70.74
5938;DHT22;2994;51.220;4.412;2022-09-09T17:43:08;20.50;71.71
5938;DHT22;2994;51.220;4.412;2022-09-09T17:45:34;20.57;70.75
5938;DHT22;2994;51.220;4.412;2022-09-09T17:47:59;20.54;71.42
5938;DHT22;2994;51.220;4.412;2022-09-09T17:50:25;20.55;71.45
5938;DHT22;2994;51.220;4.412;2022-09-09T17:52:50;20.58;70.58
5938;DHT22;2994;51.220;4.412;2022-09-09T17:55:15;20.51;71.93